Time;durP1;ratioP1;P1;durP2;ratioP2;P2;SDS_P1;SDS_P2;PMS_P1;PMS_P2;Temp;Humidity;BMP_temperature;BMP_pressure;BME280_temperature;BME280_humidity;BME280_pressure;Samples;Min_cycle;Max_cycle;Signal;HPM_P1;HPM_P2
2020/12/26 00:01:53;;;;;;;15.40;11.00;;;3.40;99.90;;;;;;5094330;28;20193;-64
2020/12/26 00:04:19;;;;;;;13.57;9.90;;;3.40;99.90;;;;;;5094020;28;20166;-65
2020/12/26 00:06:50;;;;;;;13.17;9.60;;;3.40;99.90;;;;;;5087237;28;20656;-65
2020/12/26 00:09:15;;;;;;;14.77;10.50;;;3.30;99.90;;;;;;5074019;28;20174;-64
2020/12/26 00:11:41;;;;;;;14.47;10.07;;;3.40;99.90;;;;;;5073812;28;20482;-64
2020/12/26 00:14:06;;;;;;;15.83;11.37;;;3.40;99.90;;;;;;5073894;28;20196;-65
2020/12/26 00:16:32;;;;;;;17.40;12.13;;;3.40;99.90;;;;;;5073736;28;20161;-64
2020/12/26 00:18:58;;;;;;;19.50;12.80;;;3.30;99.90;;;;;;5073270;28;20198;-65
2020/12/26 00:21:23;;;;;;;14.60;10.13;;;3.20;99.90;;;;;;5073504;28;20224;-65
2020/12/26 00:23:49;;;;;;;16.13;11.40;;;3.10;99.90;;;;;;5073870;28;20525;-65
2020/12/26 00:26:16;;;;;;;12.60;9.77;;;3.10;99.90;;;;;;5073899;28;20173;-65
2020/12/26 00:28:42;;;;;;;16.00;10.93;;;3.10;99.90;;;;;;5073648;28;20185;-65
2020/12/26 00:31:16;;;;;;;14.73;10.50;;;3.00;99.90;;;;;;5091467;28;20463;-64
2020/12/26 00:33:42;;;;;;;16.47;11.47;;;3.00;99.90;;;;;;5093350;28;20394;-64
2020/12/26 00:36:07;;;;;;;14.97;10.03;;;2.90;99.90;;;;;;5092476;28;20409;-64
2020/12/26 00:38:33;;;;;;;14.93;10.20;;;2.80;99.90;;;;;;5073615;28;20193;-64
2020/12/26 00:40:59;;;;;;;13.47;10.40;;;2.80;99.90;;;;;;5073559;28;20196;-64
2020/12/26 00:43:25;;;;;;;15.80;9.50;;;2.90;99.90;;;;;;5073754;28;20449;-64
2020/12/26 00:45:50;;;;;;;14.23;10.47;;;2.90;99.90;;;;;;5073639;28;20170;-64
2020/12/26 00:48:16;;;;;;;13.67;10.03;;;2.80;99.90;;;;;;5093693;28;20211;-63
2020/12/26 00:50:42;;;;;;;13.80;9.63;;;2.80;99.90;;;;;;5093552;28;20217;-64
2020/12/26 00:53:07;;;;;;;11.40;9.87;;;2.80;99.90;;;;;;5093234;28;20171;-65
2020/12/26 00:55:33;;;;;;;12.23;9.30;;;2.80;99.90;;;;;;5093461;28;20902;-64
2020/12/26 00:57:59;;;;;;;13.33;9.47;;;2.80;99.90;;;;;;5093348;28;20316;-64
2020/12/26 01:00:24;;;;;;;12.30;9.57;;;2.80;99.90;;;;;;5093399;28;20169;-64
2020/12/26 01:02:50;;;;;;;11.27;9.23;;;2.80;99.90;;;;;;5093434;28;20558;-64
2020/12/26 01:05:16;;;;;;;16.20;9.30;;;2.90;99.90;;;;;;5093436;28;20192;-63
2020/12/26 01:07:41;;;;;;;10.77;8.80;;;2.80;99.90;;;;;;5094881;28;20251;-64
2020/12/26 01:10:07;;;;;;;16.73;8.97;;;2.70;99.90;;;;;;5097877;28;20221;-64
2020/12/26 01:12:33;;;;;;;17.70;9.83;;;2.70;99.90;;;;;;5099240;28;20175;-64
2020/12/26 01:14:58;;;;;;;13.13;9.80;;;2.60;99.90;;;;;;5092835;28;20188;-66
2020/12/26 01:17:24;;;;;;;14.07;10.70;;;2.50;99.90;;;;;;5078553;28;20270;-64
2020/12/26 01:19:50;;;;;;;11.67;10.40;;;2.50;99.90;;;;;;5078644;28;20627;-64
2020/12/26 01:22:15;;;;;;;17.27;10.83;;;2.50;99.90;;;;;;5078272;28;20199;-64
2020/12/26 01:24:42;;;;;;;13.50;10.10;;;2.50;99.90;;;;;;5077726;28;20248;-64
2020/12/26 01:27:08;;;;;;;11.00;9.60;;;2.50;99.90;;;;;;5076873;28;20166;-64
2020/12/26 01:29:35;;;;;;;12.33;9.57;;;2.40;99.90;;;;;;5077028;28;20423;-64
2020/12/26 01:32:00;;;;;;;12.57;9.43;;;2.30;99.90;;;;;;5076563;28;20792;-64
2020/12/26 01:34:26;;;;;;;14.63;10.50;;;2.30;99.90;;;;;;5076682;28;20413;-64
2020/12/26 01:36:55;;;;;;;12.07;9.80;;;2.30;99.90;;;;;;5076424;28;20195;-64
2020/12/26 01:39:22;;;;;;;14.37;10.77;;;2.20;99.90;;;;;;5076542;28;20188;-64
2020/12/26 01:41:52;;;;;;;15.40;11.47;;;2.10;99.90;;;;;;5076886;28;21042;-64
2020/12/26 01:44:19;;;;;;;13.33;10.00;;;2.20;99.90;;;;;;5079861;28;20486;-64
2020/12/26 01:46:47;;;;;;;16.57;11.30;;;2.20;99.90;;;;;;5084596;28;20432;-63
2020/12/26 01:49:14;;;;;;;14.37;10.40;;;2.20;99.90;;;;;;5096720;28;20476;-64
2020/12/26 01:51:41;;;;;;;20.10;11.00;;;2.20;99.90;;;;;;5096548;28;20423;-65
2020/12/26 01:54:06;;;;;;;17.73;12.33;;;2.20;99.90;;;;;;5097377;28;20410;-64
2020/12/26 01:56:33;;;;;;;17.27;11.40;;;2.20;99.90;;;;;;5096801;28;20407;-64
2020/12/26 01:58:58;;;;;;;17.00;10.40;;;2.20;99.90;;;;;;5096469;28;20206;-65
2020/12/26 02:01:36;;;;;;;13.57;10.50;;;2.10;99.90;;;;;;5096108;28;20393;-64
2020/12/26 02:04:03;;;;;;;17.83;11.50;;;2.30;99.90;;;;;;5096437;28;20166;-64
2020/12/26 02:06:38;;;;;;;14.23;11.17;;;2.30;99.90;;;;;;5096630;28;20405;-64
2020/12/26 02:09:05;;;;;;;15.73;12.00;;;2.20;99.90;;;;;;5096770;28;21011;-64
2020/12/26 02:11:31;;;;;;;17.23;12.10;;;2.20;99.90;;;;;;5096847;28;20456;-65
2020/12/26 02:13:57;;;;;;;17.83;11.47;;;2.10;99.90;;;;;;5096331;28;20406;-64
2020/12/26 02:16:23;;;;;;;16.33;11.27;;;2.20;99.90;;;;;;5079497;28;20413;-64
2020/12/26 02:18:49;;;;;;;16.73;12.83;;;2.20;99.90;;;;;;5075486;28;20286;-64
2020/12/26 02:21:15;;;;;;;16.63;11.87;;;2.30;99.90;;;;;;5075913;28;20493;-64
2020/12/26 02:23:45;;;;;;;14.83;11.93;;;2.40;99.90;;;;;;5076017;28;20676;-64
2020/12/26 02:26:11;;;;;;;16.43;11.40;;;2.50;99.90;;;;;;5075711;28;20403;-65
2020/12/26 02:28:37;;;;;;;14.60;10.60;;;2.60;99.90;;;;;;5075746;28;20426;-65
2020/12/26 02:31:03;;;;;;;17.43;11.20;;;2.50;99.90;;;;;;5075353;28;20402;-65
2020/12/26 02:33:28;;;;;;;15.97;10.33;;;2.60;99.90;;;;;;5077050;28;20766;-65
2020/12/26 02:35:54;;;;;;;16.80;11.90;;;2.70;99.90;;;;;;5096878;28;20406;-64
2020/12/26 02:38:19;;;;;;;15.53;10.77;;;2.60;99.90;;;;;;5095792;28;20197;-65
2020/12/26 02:40:49;;;;;;;13.87;11.00;;;2.70;99.90;;;;;;5096182;28;20645;-65
2020/12/26 02:43:21;;;;;;;14.23;10.63;;;2.70;99.90;;;;;;5095554;28;20234;-65
2020/12/26 02:45:47;;;;;;;15.33;11.63;;;2.80;99.90;;;;;;5083886;28;20410;-64
2020/12/26 02:48:14;;;;;;;16.83;10.43;;;2.80;99.90;;;;;;5075191;28;20462;-64
2020/12/26 02:50:39;;;;;;;19.93;12.97;;;2.90;99.90;;;;;;5075319;28;20865;-65
2020/12/26 02:53:05;;;;;;;21.83;14.30;;;3.00;99.90;;;;;;5075061;28;20410;-65
2020/12/26 02:55:30;;;;;;;20.63;14.37;;;3.00;99.90;;;;;;5075344;28;20256;-65
2020/12/26 02:57:56;;;;;;;17.00;12.30;;;3.00;99.90;;;;;;5075101;28;20211;-65
2020/12/26 03:00:21;;;;;;;14.33;10.50;;;3.10;99.90;;;;;;5075362;28;20586;-65
2020/12/26 03:02:47;;;;;;;18.60;13.40;;;3.10;99.90;;;;;;5075238;28;20196;-65
2020/12/26 03:05:13;;;;;;;19.23;12.67;;;3.10;99.90;;;;;;5075559;28;20173;-65
2020/12/26 03:07:38;;;;;;;19.10;13.17;;;3.10;99.90;;;;;;5074815;28;20248;-65
2020/12/26 03:10:05;;;;;;;20.80;14.23;;;3.00;99.90;;;;;;5075590;28;20165;-64
2020/12/26 03:12:30;;;;;;;21.77;11.57;;;3.00;99.90;;;;;;5075220;28;20220;-64
2020/12/26 03:14:56;;;;;;;20.73;12.20;;;2.90;99.90;;;;;;5074925;28;20821;-65
2020/12/26 03:17:21;;;;;;;19.03;12.80;;;2.90;99.90;;;;;;5074765;28;20165;-65
2020/12/26 03:19:47;;;;;;;17.20;12.97;;;2.90;99.90;;;;;;5074699;28;20205;-65
2020/12/26 03:22:13;;;;;;;22.47;13.27;;;2.90;99.90;;;;;;5074525;28;20200;-64
2020/12/26 03:24:38;;;;;;;19.50;13.07;;;2.90;99.90;;;;;;5075033;28;20170;-64
2020/12/26 03:27:04;;;;;;;22.33;13.30;;;2.90;99.90;;;;;;5075157;28;20165;-64
2020/12/26 03:29:30;;;;;;;17.60;11.90;;;2.90;99.90;;;;;;5073982;28;20430;-65
2020/12/26 03:31:55;;;;;;;18.83;13.33;;;2.90;99.90;;;;;;5074341;28;20184;-64
2020/12/26 03:34:21;;;;;;;18.63;13.60;;;2.90;99.90;;;;;;5074637;28;20167;-64
2020/12/26 03:36:47;;;;;;;18.00;14.10;;;2.70;99.90;;;;;;5074314;28;20175;-64
2020/12/26 03:39:12;;;;;;;19.90;11.40;;;2.70;99.90;;;;;;5080507;28;20773;-64
2020/12/26 03:41:38;;;;;;;16.87;12.30;;;2.80;99.90;;;;;;5095144;28;20274;-64
2020/12/26 03:44:03;;;;;;;17.07;12.67;;;2.80;99.90;;;;;;5095102;28;20178;-66
2020/12/26 03:46:29;;;;;;;16.50;11.80;;;2.90;99.90;;;;;;5077663;28;20260;-65
2020/12/26 03:48:55;;;;;;;19.90;13.10;;;2.90;99.90;;;;;;5075170;28;20188;-65
2020/12/26 03:51:20;;;;;;;20.80;12.10;;;2.90;99.90;;;;;;5074664;28;20165;-65
2020/12/26 03:53:46;;;;;;;19.93;12.33;;;2.80;99.90;;;;;;5074965;28;20204;-64
2020/12/26 03:56:18;;;;;;;26.17;13.83;;;2.80;99.90;;;;;;5075114;28;20165;-65
2020/12/26 03:58:44;;;;;;;17.53;12.80;;;2.80;99.90;;;;;;5073705;28;20193;-65
2020/12/26 04:01:10;;;;;;;22.17;12.53;;;2.90;99.90;;;;;;5074346;28;20403;-65
2020/12/26 04:03:36;;;;;;;16.07;11.87;;;2.90;99.90;;;;;;5074297;28;20494;-65
2020/12/26 04:06:01;;;;;;;16.93;11.70;;;2.80;99.90;;;;;;5074024;28;20424;-65
2020/12/26 04:08:27;;;;;;;19.77;10.70;;;2.90;99.90;;;;;;5073650;28;20186;-65
2020/12/26 04:10:53;;;;;;;24.80;11.60;;;3.00;99.90;;;;;;5073940;28;20218;-66
2020/12/26 04:13:18;;;;;;;16.47;11.33;;;3.00;99.90;;;;;;5074075;28;20540;-65
2020/12/26 04:15:44;;;;;;;18.83;11.47;;;3.00;99.90;;;;;;5073586;28;20507;-64
2020/12/26 04:18:09;;;;;;;17.50;10.57;;;3.00;99.90;;;;;;5074048;28;20201;-65
2020/12/26 04:20:35;;;;;;;16.43;12.50;;;3.00;99.90;;;;;;5073660;28;20188;-66
2020/12/26 04:23:01;;;;;;;16.73;10.73;;;3.00;99.90;;;;;;5072226;28;20228;-64
2020/12/26 04:25:26;;;;;;;19.73;10.77;;;3.00;99.90;;;;;;5073752;28;20207;-64
2020/12/26 04:27:52;;;;;;;14.90;11.20;;;3.00;99.90;;;;;;5073742;28;20191;-64
2020/12/26 04:30:17;;;;;;;15.60;10.80;;;3.10;99.90;;;;;;5074240;28;20169;-64
2020/12/26 04:32:43;;;;;;;14.40;10.30;;;3.10;99.90;;;;;;5073387;28;20269;-65
2020/12/26 04:35:08;;;;;;;22.40;10.40;;;3.10;99.90;;;;;;5073357;28;20169;-64
2020/12/26 04:37:34;;;;;;;15.63;11.13;;;3.20;99.90;;;;;;5078792;28;20649;-64
2020/12/26 04:40:00;;;;;;;15.43;9.03;;;3.30;99.90;;;;;;5093453;28;20174;-64
2020/12/26 04:42:26;;;;;;;17.17;11.17;;;3.20;99.90;;;;;;5095994;28;20275;-65
2020/12/26 04:44:54;;;;;;;18.80;10.60;;;3.20;99.90;;;;;;5089680;28;20173;-65
2020/12/26 04:47:29;;;;;;;16.73;10.50;;;3.10;99.90;;;;;;5073038;28;20403;-65
2020/12/26 04:49:58;;;;;;;18.63;9.57;;;3.00;99.90;;;;;;5073371;28;20391;-64
2020/12/26 04:52:27;;;;;;;12.33;9.60;;;3.10;99.90;;;;;;5073218;28;20768;-65
2020/12/26 04:54:55;;;;;;;16.93;9.83;;;3.10;99.90;;;;;;5073738;28;20910;-65
2020/12/26 04:57:21;;;;;;;22.10;10.20;;;3.10;99.90;;;;;;5093682;28;20899;-64
2020/12/26 04:59:47;;;;;;;15.47;10.87;;;3.10;99.90;;;;;;5093241;28;20427;-64
2020/12/26 05:02:14;;;;;;;9.93;8.90;;;3.20;99.90;;;;;;5093022;28;20504;-65
2020/12/26 05:04:43;;;;;;;13.27;9.27;;;3.20;99.90;;;;;;5093502;28;20427;-64
2020/12/26 05:07:11;;;;;;;13.73;9.33;;;3.20;99.90;;;;;;5093006;28;20490;-65
2020/12/26 05:09:36;;;;;;;13.70;9.50;;;3.30;99.90;;;;;;5093405;28;20423;-64
2020/12/26 05:12:02;;;;;;;16.70;10.07;;;3.20;99.90;;;;;;5093790;28;20426;-65
2020/12/26 05:14:31;;;;;;;14.50;10.47;;;3.20;99.90;;;;;;5092747;28;20253;-65
2020/12/26 05:16:57;;;;;;;17.73;12.10;;;3.40;99.90;;;;;;5071530;28;20400;-65
2020/12/26 05:19:24;;;;;;;13.40;9.83;;;3.50;99.90;;;;;;5072809;28;20504;-65
2020/12/26 05:21:54;;;;;;;18.90;11.03;;;3.60;99.90;;;;;;5072650;28;20459;-65
2020/12/26 05:24:19;;;;;;;16.70;11.53;;;3.60;99.90;;;;;;5073133;28;20405;-65
2020/12/26 05:26:50;;;;;;;15.53;10.90;;;3.40;99.90;;;;;;5073344;28;20487;-65
2020/12/26 05:29:18;;;;;;;18.20;12.87;;;3.50;99.90;;;;;;5073419;28;20421;-65
2020/12/26 05:31:49;;;;;;;17.97;11.97;;;3.60;99.90;;;;;;5076566;28;20416;-65
2020/12/26 05:34:15;;;;;;;19.07;12.50;;;3.50;99.90;;;;;;5094493;28;20920;-65
2020/12/26 05:36:41;;;;;;;19.17;11.60;;;3.60;99.90;;;;;;5093337;28;20407;-65
2020/12/26 05:39:07;;;;;;;19.00;13.50;;;3.40;99.90;;;;;;5093214;28;20419;-65
2020/12/26 05:41:38;;;;;;;19.40;14.70;;;3.50;99.90;;;;;;5093355;28;20800;-65
2020/12/26 05:44:04;;;;;;;24.20;15.30;;;3.60;99.90;;;;;;5093434;28;20882;-65
2020/12/26 05:46:29;;;;;;;21.00;16.10;;;3.40;99.90;;;;;;5074407;28;20408;-65
2020/12/26 05:48:55;;;;;;;19.30;14.30;;;3.60;99.90;;;;;;5072826;28;20258;-65
2020/12/26 05:51:23;;;;;;;21.63;15.10;;;3.70;99.90;;;;;;5072987;28;20174;-64
2020/12/26 05:53:54;;;;;;;14.63;12.80;;;3.80;99.90;;;;;;5074799;28;20184;-64
2020/12/26 05:56:19;;;;;;;15.13;12.13;;;3.70;99.90;;;;;;5076838;28;20396;-64
2020/12/26 05:58:45;;;;;;;20.50;13.73;;;3.80;99.90;;;;;;5076572;28;20939;-65
2020/12/26 06:01:11;;;;;;;15.07;11.67;;;3.70;99.90;;;;;;5075814;28;20162;-65
2020/12/26 06:03:36;;;;;;;23.50;15.37;;;3.70;99.90;;;;;;5076033;28;20198;-64
2020/12/26 06:06:04;;;;;;;18.10;11.60;;;3.70;99.90;;;;;;5076124;28;20189;-65
2020/12/26 06:08:31;;;;;;;19.03;12.53;;;3.70;99.90;;;;;;5075259;28;20808;-64
2020/12/26 06:11:02;;;;;;;22.37;14.77;;;3.60;99.90;;;;;;5076381;28;20411;-64
2020/12/26 06:13:29;;;;;;;20.90;13.63;;;3.50;99.90;;;;;;5075524;28;20901;-65
2020/12/26 06:16:16;;;;;;;25.60;15.77;;;3.40;99.90;;;;;;5076274;28;20403;-65
2020/12/26 06:18:57;;;;;;;23.30;14.17;;;3.30;99.90;;;;;;5076092;28;20493;-65
2020/12/26 06:21:24;;;;;;;22.17;14.90;;;3.30;99.90;;;;;;5076091;28;20400;-65
2020/12/26 06:23:50;;;;;;;20.37;13.33;;;3.20;99.90;;;;;;5075779;28;20401;-65
2020/12/26 06:26:17;;;;;;;20.20;13.33;;;3.10;99.90;;;;;;5076123;28;20435;-65
2020/12/26 06:28:44;;;;;;;20.67;14.53;;;3.10;99.90;;;;;;5075457;28;20890;-65
2020/12/26 06:31:10;;;;;;;18.90;12.80;;;2.90;99.90;;;;;;5075651;28;20396;-65
2020/12/26 06:33:46;;;;;;;22.43;14.17;;;2.80;99.90;;;;;;5094340;28;20419;-65
2020/12/26 06:36:13;;;;;;;21.13;12.57;;;2.70;99.90;;;;;;5096162;28;20417;-66
2020/12/26 06:38:40;;;;;;;22.13;13.90;;;2.70;99.90;;;;;;5080343;28;20443;-65
2020/12/26 06:41:07;;;;;;;16.97;12.00;;;2.60;99.90;;;;;;5075775;28;20882;-65
2020/12/26 06:43:43;;;;;;;21.53;12.03;;;2.60;99.90;;;;;;5075465;28;20450;-65
2020/12/26 06:46:29;;;;;;;20.87;13.83;;;2.50;99.90;;;;;;5075637;28;20402;-65
2020/12/26 06:48:57;;;;;;;19.73;13.23;;;2.50;99.90;;;;;;5075271;28;20427;-64
2020/12/26 06:51:26;;;;;;;21.53;13.70;;;2.40;99.90;;;;;;5075243;28;20402;-65
2020/12/26 06:53:54;;;;;;;20.50;13.30;;;2.40;99.90;;;;;;5075176;28;20404;-65
2020/12/26 06:56:34;;;;;;;23.37;14.77;;;2.50;99.90;;;;;;5075135;28;20411;-64
2020/12/26 06:59:07;;;;;;;20.03;16.10;;;2.30;99.90;;;;;;5075887;28;20418;-65
2020/12/26 07:01:34;;;;;;;18.37;13.50;;;2.20;99.90;;;;;;5075855;28;20407;-65
2020/12/26 07:04:14;;;;;;;19.67;14.47;;;2.20;99.90;;;;;;5076071;28;20416;-65
2020/12/26 07:06:41;;;;;;;20.60;14.83;;;2.10;99.90;;;;;;5074519;28;20374;-65
2020/12/26 07:09:08;;;;;;;22.53;14.20;;;2.10;99.90;;;;;;5074907;28;20431;-65
2020/12/26 07:11:50;;;;;;;22.17;14.80;;;2.10;99.90;;;;;;5075141;28;20401;-63
2020/12/26 07:14:38;;;;;;;19.73;13.97;;;2.20;99.90;;;;;;5074896;28;20387;-65
2020/12/26 07:17:05;;;;;;;24.07;14.43;;;2.10;99.90;;;;;;5074711;28;20407;-64
2020/12/26 07:19:32;;;;;;;21.13;12.97;;;2.10;99.90;;;;;;5074642;28;20522;-65
2020/12/26 07:22:06;;;;;;;25.77;15.70;;;1.90;99.90;;;;;;5074816;28;20540;-64
2020/12/26 07:24:37;;;;;;;18.50;12.77;;;1.90;99.90;;;;;;5074889;28;20378;-65
2020/12/26 07:27:19;;;;;;;22.53;13.60;;;2.00;99.90;;;;;;5074547;28;20409;-65
2020/12/26 07:30:05;;;;;;;20.83;14.30;;;2.10;99.90;;;;;;5076295;28;20542;-64
2020/12/26 07:35:19;;;;;;;22.00;14.00;;;2.10;99.90;;;;;;5074634;28;20758;-65
2020/12/26 07:37:58;;;;;;;18.57;12.83;;;2.20;99.90;;;;;;5084682;28;20942;-65
2020/12/26 07:40:35;;;;;;;24.27;15.70;;;2.20;99.90;;;;;;5074679;28;20394;-65
2020/12/26 07:43:04;;;;;;;24.30;14.80;;;2.20;99.90;;;;;;5074287;28;20464;-65
2020/12/26 07:45:31;;;;;;;21.27;15.33;;;2.10;99.90;;;;;;5074519;28;20463;-65
2020/12/26 07:47:59;;;;;;;22.13;14.33;;;2.20;99.90;;;;;;5076763;28;20425;-65
2020/12/26 07:50:32;;;;;;;20.37;14.13;;;2.30;99.90;;;;;;5094696;28;20433;-65
2020/12/26 07:53:09;;;;;;;20.80;15.20;;;2.40;99.90;;;;;;5094411;28;20478;-66
2020/12/26 07:55:36;;;;;;;21.60;15.60;;;2.40;99.90;;;;;;5094681;28;20396;-65
2020/12/26 07:58:13;;;;;;;28.73;14.87;;;2.50;99.90;;;;;;5094447;28;20446;-65
2020/12/26 08:00:41;;;;;;;27.10;16.40;;;2.60;99.90;;;;;;5094707;28;20910;-65
2020/12/26 08:03:09;;;;;;;27.13;16.53;;;2.60;99.90;;;;;;5093905;28;20446;-63
2020/12/26 08:05:37;;;;;;;18.57;15.27;;;2.70;99.90;;;;;;5094103;28;20485;-65
2020/12/26 08:08:13;;;;;;;18.93;14.60;;;2.70;99.90;;;;;;5079661;28;20447;-65
2020/12/26 08:10:38;;;;;;;16.73;12.77;;;2.90;99.90;;;;;;5074113;28;20383;-66
2020/12/26 08:13:04;;;;;;;20.13;13.60;;;3.00;99.90;;;;;;5073695;28;20419;-67
2020/12/26 08:15:31;;;;;;;21.93;14.30;;;3.00;99.90;;;;;;5073130;28;20168;-65
2020/12/26 08:17:59;;;;;;;18.80;11.93;;;3.00;99.90;;;;;;5073421;28;20326;-65
2020/12/26 08:20:26;;;;;;;18.90;13.50;;;3.10;99.90;;;;;;5073880;28;20432;-61
2020/12/26 08:22:52;;;;;;;14.73;10.43;;;3.20;99.90;;;;;;5074777;28;20901;-62
2020/12/26 08:25:20;;;;;;;14.67;10.13;;;3.10;99.90;;;;;;5083936;28;20481;-62
2020/12/26 08:27:46;;;;;;;13.37;11.80;;;3.10;99.90;;;;;;5093978;28;20622;-61
2020/12/26 08:30:15;;;;;;;13.73;9.47;;;3.20;99.90;;;;;;5094681;28;20404;-63
2020/12/26 08:33:09;;;;;;;13.77;11.40;;;3.10;99.90;;;;;;5094778;28;20769;-62
2020/12/26 08:35:39;;;;;;;17.60;11.97;;;3.00;99.90;;;;;;5094687;28;20443;-62
2020/12/26 08:38:18;;;;;;;13.80;10.83;;;3.10;99.90;;;;;;5076638;28;20447;-62
2020/12/26 08:40:52;;;;;;;12.90;11.20;;;2.90;99.90;;;;;;5096742;28;20386;-62
2020/12/26 08:43:18;;;;;;;16.03;12.60;;;2.90;99.90;;;;;;5074564;28;20517;-62
2020/12/26 08:45:43;;;;;;;16.63;12.30;;;3.10;99.90;;;;;;5073317;28;20419;-62
2020/12/26 08:48:17;;;;;;;15.70;11.40;;;3.00;99.90;;;;;;5074225;28;20216;-62
2020/12/26 08:50:43;;;;;;;15.13;11.50;;;3.10;99.90;;;;;;5074454;28;20165;-62
2020/12/26 08:53:10;;;;;;;15.27;11.20;;;3.10;99.90;;;;;;5074495;28;20414;-62
2020/12/26 08:55:53;;;;;;;17.70;11.90;;;3.20;99.90;;;;;;5074079;28;20175;-61
2020/12/26 08:58:29;;;;;;;16.73;12.50;;;3.40;99.90;;;;;;5074397;28;20420;-62
2020/12/26 09:01:00;;;;;;;17.20;13.63;;;3.60;99.90;;;;;;5074220;28;20442;-62
2020/12/26 09:03:27;;;;;;;13.27;11.27;;;3.70;99.90;;;;;;5074123;28;20436;-62
2020/12/26 09:05:54;;;;;;;16.33;12.10;;;3.80;99.90;;;;;;5074208;28;20396;-62
2020/12/26 09:08:27;;;;;;;17.73;12.33;;;3.90;99.90;;;;;;5073789;28;20527;-62
2020/12/26 09:10:58;;;;;;;16.00;11.20;;;3.90;99.90;;;;;;5074422;28;20911;-64
2020/12/26 09:13:35;;;;;;;13.50;9.63;;;3.70;99.90;;;;;;5074219;28;20404;-60
2020/12/26 09:16:08;;;;;;;13.90;10.57;;;3.70;99.90;;;;;;5073756;28;20910;-62
2020/12/26 09:18:36;;;;;;;14.30;10.17;;;3.80;99.90;;;;;;5073422;28;20507;-60
2020/12/26 09:21:03;;;;;;;11.07;9.53;;;3.80;99.90;;;;;;5073917;28;20458;-60
2020/12/26 09:23:39;;;;;;;14.47;9.53;;;4.00;99.90;;;;;;5074205;28;20847;-61
2020/12/26 09:26:09;;;;;;;10.57;9.30;;;4.10;99.90;;;;;;5090191;28;20419;-59
2020/12/26 09:28:59;;;;;;;10.40;9.30;;;4.20;99.90;;;;;;5095982;28;20423;-61
2020/12/26 09:31:35;;;;;;;12.23;9.03;;;4.30;99.90;;;;;;5098386;28;20399;-61
2020/12/26 09:34:22;;;;;;;12.00;9.50;;;4.40;99.90;;;;;;5097720;28;20740;-61
2020/12/26 09:37:01;;;;;;;11.63;8.37;;;4.40;99.90;;;;;;5094944;28;20423;-61
2020/12/26 09:39:27;;;;;;;10.60;9.50;;;4.70;99.90;;;;;;5077548;28;20865;-62
2020/12/26 09:41:52;;;;;;;10.93;9.23;;;4.80;99.90;;;;;;5077424;28;20546;-63
2020/12/26 09:44:18;;;;;;;9.87;8.67;;;4.80;99.90;;;;;;5077256;28;20174;-60
2020/12/26 09:46:44;;;;;;;9.53;8.10;;;4.80;99.90;;;;;;5077928;28;20630;-61
2020/12/26 09:49:10;;;;;;;9.97;8.37;;;4.80;99.90;;;;;;5077264;28;20185;-61
2020/12/26 09:51:36;;;;;;;12.50;9.40;;;4.60;99.90;;;;;;5077057;28;20657;-60
2020/12/26 09:54:02;;;;;;;11.97;9.27;;;4.70;99.90;;;;;;5076018;28;20404;-61
2020/12/26 09:56:27;;;;;;;10.80;9.70;;;4.80;99.90;;;;;;5077277;28;20946;-60
2020/12/26 09:58:53;;;;;;;11.60;9.60;;;4.80;99.90;;;;;;5077497;28;20448;-59
2020/12/26 10:01:21;;;;;;;10.83;8.47;;;5.00;99.90;;;;;;5077035;28;20660;-61
2020/12/26 10:03:48;;;;;;;12.27;9.77;;;5.10;99.90;;;;;;5076613;28;20963;-62
2020/12/26 10:06:19;;;;;;;9.13;8.13;;;5.00;99.90;;;;;;5076839;28;20453;-62
2020/12/26 10:08:46;;;;;;;10.40;8.87;;;5.20;99.90;;;;;;5076960;28;20426;-62
2020/12/26 10:11:13;;;;;;;12.03;10.10;;;5.40;99.90;;;;;;5077896;28;20400;-62
2020/12/26 10:13:39;;;;;;;11.87;8.50;;;5.50;99.90;;;;;;5077040;28;20419;-62
2020/12/26 10:16:05;;;;;;;15.90;8.20;;;5.60;99.90;;;;;;5076658;28;20404;-62
2020/12/26 10:18:30;;;;;;;10.93;8.47;;;5.90;99.90;;;;;;5076403;28;20428;-63
2020/12/26 10:20:57;;;;;;;10.43;7.50;;;6.00;99.90;;;;;;5076605;28;20392;-63
2020/12/26 10:23:23;;;;;;;7.97;7.17;;;5.80;99.90;;;;;;5084206;28;20198;-63
2020/12/26 10:25:50;;;;;;;7.93;7.13;;;5.60;99.90;;;;;;5096753;28;20424;-63
2020/12/26 10:28:17;;;;;;;7.70;6.57;;;5.60;99.90;;;;;;5097040;28;20661;-63
2020/12/26 10:30:42;;;;;;;9.17;7.70;;;5.80;99.90;;;;;;5097179;28;20395;-63
2020/12/26 10:33:08;;;;;;;9.60;8.23;;;5.80;99.90;;;;;;5096105;28;20407;-63
2020/12/26 10:35:34;;;;;;;9.50;7.30;;;5.90;99.90;;;;;;5097182;28;20207;-63
2020/12/26 10:37:59;;;;;;;10.80;7.33;;;6.20;99.90;;;;;;5083286;28;20704;-63
2020/12/26 10:40:25;;;;;;;8.23;6.10;;;6.30;99.90;;;;;;5091066;28;20170;-64
2020/12/26 10:42:50;;;;;;;11.20;6.67;;;6.50;99.90;;;;;;5096818;28;20189;-64
2020/12/26 10:45:16;;;;;;;8.53;6.60;;;6.30;99.90;;;;;;5096677;28;20165;-62
2020/12/26 10:47:42;;;;;;;8.20;6.30;;;6.30;99.90;;;;;;5096486;28;20204;-63
2020/12/26 10:50:07;;;;;;;8.30;6.97;;;6.30;99.90;;;;;;5096863;28;20546;-63
2020/12/26 10:52:33;;;;;;;7.30;5.90;;;6.50;99.90;;;;;;5089160;28;20178;-63
2020/12/26 10:54:59;;;;;;;6.70;6.10;;;6.80;99.90;;;;;;5076001;28;20174;-62
2020/12/26 10:57:25;;;;;;;7.80;6.53;;;6.90;99.90;;;;;;5076043;28;20241;-62
2020/12/26 10:59:50;;;;;;;7.20;6.40;;;6.70;99.90;;;;;;5076086;28;20424;-62
2020/12/26 11:02:16;;;;;;;8.63;5.80;;;6.70;99.90;;;;;;5075944;28;20566;-62
2020/12/26 11:04:41;;;;;;;6.20;5.03;;;6.60;99.90;;;;;;5076054;28;20162;-62
2020/12/26 11:07:07;;;;;;;6.37;5.63;;;7.20;99.90;;;;;;5075654;28;20189;-62
2020/12/26 11:09:32;;;;;;;8.17;4.93;;;7.50;99.90;;;;;;5075707;28;20186;-62
2020/12/26 11:11:58;;;;;;;5.67;5.13;;;7.30;99.90;;;;;;5076251;28;20625;-63
2020/12/26 11:14:24;;;;;;;6.40;5.07;;;7.30;99.90;;;;;;5075802;28;20197;-63
2020/12/26 11:16:50;;;;;;;8.90;6.30;;;7.50;99.90;;;;;;5075732;28;20227;-63
2020/12/26 11:19:16;;;;;;;6.20;5.60;;;7.60;99.90;;;;;;5095203;28;20205;-62
2020/12/26 11:21:42;;;;;;;6.77;5.50;;;7.70;99.90;;;;;;5096361;28;20419;-63
2020/12/26 11:24:09;;;;;;;7.23;5.10;;;8.00;99.90;;;;;;5076605;28;20417;-63
2020/12/26 11:26:34;;;;;;;5.03;4.53;;;8.30;99.90;;;;;;5075902;28;20164;-63
2020/12/26 11:29:00;;;;;;;5.37;4.80;;;8.30;99.90;;;;;;5075709;28;20447;-63
2020/12/26 11:31:26;;;;;;;7.40;4.57;;;8.20;99.90;;;;;;5075325;28;20155;-62
2020/12/26 11:33:52;;;;;;;5.70;4.93;;;7.80;99.90;;;;;;5075681;28;20405;-62
2020/12/26 11:36:23;;;;;;;5.50;5.03;;;7.90;99.90;;;;;;5075276;28;20630;-62
2020/12/26 11:38:49;;;;;;;6.97;5.47;;;7.80;99.90;;;;;;5074841;28;20223;-62
2020/12/26 11:41:25;;;;;;;5.53;5.07;;;7.70;99.90;;;;;;5075211;28;20897;-62
2020/12/26 11:43:52;;;;;;;6.07;5.47;;;8.10;99.90;;;;;;5075198;28;20843;-62
2020/12/26 11:46:17;;;;;;;6.83;4.90;;;8.70;99.90;;;;;;5075301;28;20459;-62
2020/12/26 11:48:43;;;;;;;6.63;5.40;;;8.90;99.90;;;;;;5075094;28;20426;-62
2020/12/26 11:51:09;;;;;;;6.27;5.67;;;8.30;99.90;;;;;;5074086;28;20176;-62
2020/12/26 11:53:36;;;;;;;9.37;5.70;;;8.40;99.90;;;;;;5074361;28;20223;-62
2020/12/26 11:56:10;;;;;;;5.43;4.87;;;7.70;99.90;;;;;;5075161;28;20908;-61
2020/12/26 11:58:37;;;;;;;6.30;5.13;;;7.30;99.90;;;;;;5074683;28;20457;-61
2020/12/26 12:01:04;;;;;;;7.20;5.90;;;7.10;99.90;;;;;;5074509;28;20405;-61
2020/12/26 12:03:30;;;;;;;7.23;5.10;;;7.10;99.90;;;;;;5074723;28;20455;-61
2020/12/26 12:05:55;;;;;;;6.30;4.27;;;7.20;99.90;;;;;;5074889;28;20401;-60
2020/12/26 12:08:21;;;;;;;5.90;5.23;;;7.40;99.90;;;;;;5074015;28;20428;-63
2020/12/26 12:10:47;;;;;;;6.30;4.80;;;7.60;99.90;;;;;;5074912;28;20171;-62
2020/12/26 12:13:12;;;;;;;6.53;5.80;;;7.70;99.90;;;;;;5075065;28;20171;-63
2020/12/26 12:15:39;;;;;;;8.60;5.13;;;8.00;99.90;;;;;;5074730;28;20177;-61
2020/12/26 12:18:05;;;;;;;8.20;4.50;;;8.60;99.90;;;;;;5083934;28;20210;-63
2020/12/26 12:20:32;;;;;;;5.47;4.70;;;8.30;99.20;;;;;;5094512;28;20458;-62
2020/12/26 12:22:58;;;;;;;7.00;4.97;;;8.00;99.90;;;;;;5085710;28;20854;-62
2020/12/26 12:25:24;;;;;;;6.20;5.60;;;7.80;99.90;;;;;;5074296;28;20811;-62
2020/12/26 12:27:50;;;;;;;5.97;5.37;;;8.10;99.90;;;;;;5074443;28;20898;-62
2020/12/26 12:30:16;;;;;;;7.60;6.23;;;7.70;99.90;;;;;;5074577;28;20459;-62
2020/12/26 12:32:42;;;;;;;6.67;6.00;;;7.50;99.90;;;;;;5072972;28;20545;-62
2020/12/26 12:35:08;;;;;;;6.70;6.00;;;7.00;99.90;;;;;;5074650;28;20416;-61
2020/12/26 12:37:34;;;;;;;6.50;5.87;;;7.00;99.90;;;;;;5074013;28;20404;-62
2020/12/26 12:40:00;;;;;;;8.83;6.77;;;7.10;99.90;;;;;;5074798;28;20409;-62
2020/12/26 12:42:29;;;;;;;7.63;6.33;;;7.20;99.90;;;;;;5085735;28;20246;-62
2020/12/26 12:44:55;;;;;;;7.00;6.30;;;7.30;99.90;;;;;;5094748;28;20219;-62
2020/12/26 12:47:25;;;;;;;7.07;5.80;;;7.10;99.90;;;;;;5094087;28;20400;-62
2020/12/26 12:49:51;;;;;;;6.03;5.43;;;7.10;99.90;;;;;;5094189;28;20425;-62